Time;durP1;ratioP1;P1;durP2;ratioP2;P2;SDS_P1;SDS_P2;PMS_P1;PMS_P2;Temp;Humidity;BMP_temperature;BMP_pressure;BME280_temperature;BME280_humidity;BME280_pressure;Samples;Min_cycle;Max_cycle;Signal;HPM_P1;HPM_P2
2023/01/15 00:01:53;;;;;;;16.67;2.00;;;7.10;99.90;;;;;;5032974;28;20132;-80
2023/01/15 00:04:19;;;;;;;10.90;2.10;;;7.00;99.90;;;;;;5041840;28;20044;-79
2023/01/15 00:06:46;;;;;;;13.60;1.52;;;7.00;99.90;;;;;;5010435;28;20123;-79
2023/01/15 00:09:14;;;;;;;11.77;1.30;;;7.10;99.90;;;;;;5023801;28;20044;-79
2023/01/15 00:11:41;;;;;;;15.73;1.67;;;7.10;99.90;;;;;;5029402;28;20045;-79
2023/01/15 00:14:07;;;;;;;16.30;1.50;;;7.10;99.90;;;;;;5016460;28;20041;-79
2023/01/15 00:16:34;;;;;;;7.72;1.88;;;7.10;99.90;;;;;;5042791;28;20052;-79
2023/01/15 00:19:03;;;;;;;10.13;1.63;;;7.10;99.90;;;;;;5022876;28;20055;-80
2023/01/15 00:21:31;;;;;;;9.23;1.00;;;7.10;99.90;;;;;;5002695;28;20080;-79
2023/01/15 00:29:28;;;;;;;12.73;1.27;;;7.10;99.90;;;;;;5039614;28;20609;-79
2023/01/15 00:32:01;;;;;;;6.63;1.15;;;7.10;99.90;;;;;;5041490;28;20067;-77
2023/01/15 00:34:30;;;;;;;12.77;1.42;;;7.20;99.90;;;;;;5027434;28;20083;-77
2023/01/15 00:36:57;;;;;;;17.10;1.50;;;7.10;99.90;;;;;;5009335;28;20048;-79
2023/01/15 00:39:25;;;;;;;7.82;1.02;;;7.10;99.90;;;;;;5026099;28;20487;-79
2023/01/15 00:41:52;;;;;;;13.20;0.90;;;7.10;99.90;;;;;;5023643;28;20483;-79
2023/01/15 00:44:20;;;;;;;11.15;1.00;;;7.10;99.90;;;;;;5030991;28;20415;-79
2023/01/15 00:46:46;;;;;;;13.32;0.98;;;7.10;99.90;;;;;;5030138;28;20496;-79
2023/01/15 00:49:13;;;;;;;11.30;1.08;;;7.00;99.90;;;;;;5016477;28;20071;-79
2023/01/15 00:51:40;;;;;;;16.80;2.08;;;7.00;99.90;;;;;;5041011;28;20033;-77
2023/01/15 00:54:06;;;;;;;9.90;0.65;;;7.00;99.90;;;;;;5046280;28;20395;-77
2023/01/15 00:56:33;;;;;;;13.52;1.27;;;7.00;99.90;;;;;;5027742;28;20041;-78
2023/01/15 00:59:04;;;;;;;17.30;1.98;;;7.10;99.90;;;;;;5035704;28;20056;-78
2023/01/15 01:01:30;;;;;;;11.77;1.55;;;7.10;99.90;;;;;;5035688;28;20104;-79
2023/01/15 01:03:56;;;;;;;13.00;1.45;;;7.10;99.90;;;;;;5023747;28;20485;-79
2023/01/15 01:06:23;;;;;;;12.95;1.30;;;7.00;99.90;;;;;;5010306;28;20048;-79
2023/01/15 01:08:49;;;;;;;11.95;1.15;;;7.00;99.90;;;;;;5034459;28;20037;-80
2023/01/15 01:11:19;;;;;;;10.65;1.20;;;7.00;99.90;;;;;;5035694;28;20541;-79
2023/01/15 01:13:46;;;;;;;13.07;1.38;;;7.00;99.90;;;;;;5025916;28;20037;-79
2023/01/15 01:16:34;;;;;;;11.70;1.10;;;7.00;99.90;;;;;;5021460;28;20523;-78
2023/01/15 01:19:04;;;;;;;12.52;1.80;;;7.00;99.90;;;;;;5055408;28;20054;-79
2023/01/15 01:21:30;;;;;;;17.65;3.17;;;7.00;99.90;;;;;;5022804;28;20045;-79
2023/01/15 01:23:59;;;;;;;6.95;1.10;;;6.90;99.90;;;;;;5011835;28;20053;-80
2023/01/15 01:26:27;;;;;;;13.43;1.73;;;6.90;99.90;;;;;;5014941;28;20032;-80
2023/01/15 01:28:56;;;;;;;12.68;1.08;;;6.90;99.90;;;;;;5044075;28;20377;-80
2023/01/15 01:31:23;;;;;;;10.50;2.15;;;6.90;99.90;;;;;;5025726;28;20404;-80
2023/01/15 01:33:54;;;;;;;10.75;1.27;;;6.90;99.90;;;;;;5023582;28;20435;-79
2023/01/15 01:36:26;;;;;;;11.23;1.15;;;6.90;99.90;;;;;;5044333;28;20067;-80
2023/01/15 01:38:53;;;;;;;;;;;6.90;99.90;;;;;;5068051;28;20407;-78
2023/01/15 01:41:19;;;;;;;9.85;0.80;;;6.80;99.90;;;;;;5042343;28;20438;-79
2023/01/15 01:43:59;;;;;;;10.13;1.33;;;6.80;99.90;;;;;;5008955;28;20040;-80
2023/01/15 01:46:28;;;;;;;15.57;1.85;;;6.80;99.90;;;;;;5030174;28;20475;-78
2023/01/15 01:49:01;;;;;;;14.27;1.13;;;6.80;99.90;;;;;;5045106;28;20475;-79
2023/01/15 01:51:38;;;;;;;16.67;2.08;;;6.80;99.90;;;;;;5009401;28;20407;-79
2023/01/15 01:54:06;;;;;;;14.45;1.70;;;6.70;99.90;;;;;;5026072;28;20045;-80
2023/01/15 01:56:34;;;;;;;12.27;1.40;;;6.70;99.90;;;;;;5044187;28;20044;-80
2023/01/15 01:59:03;;;;;;;8.73;1.08;;;6.70;99.90;;;;;;5043818;28;20033;-79
2023/01/15 02:01:29;;;;;;;9.23;1.15;;;6.70;99.90;;;;;;5039307;28;20040;-78
2023/01/15 02:03:56;;;;;;;10.57;1.27;;;6.70;99.90;;;;;;5042223;28;20028;-80
2023/01/15 02:06:25;;;;;;;8.70;0.80;;;6.70;99.90;;;;;;5011128;28;20028;-78
2023/01/15 02:08:52;;;;;;;14.20;1.75;;;6.70;99.90;;;;;;5011926;28;20041;-78
2023/01/15 02:11:21;;;;;;;15.02;1.75;;;6.70;99.90;;;;;;5011845;28;20041;-80
2023/01/15 02:13:59;;;;;;;10.73;1.00;;;6.70;99.90;;;;;;5024881;28;20045;-80
2023/01/15 02:16:50;;;;;;;14.65;1.33;;;6.70;99.90;;;;;;5014839;28;20045;-79
2023/01/15 02:19:44;;;;;;;13.85;0.98;;;6.60;99.90;;;;;;5023769;28;20033;-79
2023/01/15 02:22:30;;;;;;;9.75;1.27;;;6.60;99.90;;;;;;5020907;28;20053;-79
2023/01/15 02:25:17;;;;;;;12.23;1.25;;;6.60;99.90;;;;;;5025697;28;20037;-79
2023/01/15 02:27:52;;;;;;;16.13;1.58;;;6.60;99.90;;;;;;5012977;28;20029;-79
2023/01/15 02:30:30;;;;;;;9.52;0.90;;;6.60;99.90;;;;;;5016437;28;20056;-79
2023/01/15 02:33:10;;;;;;;7.78;1.05;;;6.50;99.90;;;;;;5021786;28;20381;-80
2023/01/15 02:35:53;;;;;;;10.93;1.00;;;6.50;99.90;;;;;;5027243;28;20088;-79
2023/01/15 02:38:22;;;;;;;10.73;0.95;;;6.50;99.90;;;;;;5022784;28;20052;-79
2023/01/15 02:40:55;;;;;;;17.95;1.10;;;6.50;99.90;;;;;;5028214;28;20036;-79
2023/01/15 02:43:23;;;;;;;12.85;1.52;;;6.40;99.90;;;;;;5014183;28;20539;-79
2023/01/15 02:45:53;;;;;;;9.50;0.90;;;6.40;99.90;;;;;;5043097;28;20043;-80
2023/01/15 02:48:25;;;;;;;7.53;0.75;;;6.40;99.90;;;;;;5016611;28;20037;-79
2023/01/15 02:51:02;;;;;;;12.15;1.38;;;6.30;99.90;;;;;;5009005;28;20040;-80
2023/01/15 02:53:30;;;;;;;8.98;1.23;;;6.30;99.90;;;;;;5042675;28;20545;-79
2023/01/15 02:56:04;;;;;;;10.25;1.30;;;6.30;99.90;;;;;;5006765;28;20051;-79
2023/01/15 02:58:39;;;;;;;11.82;1.45;;;6.30;99.90;;;;;;5025110;28;20036;-79
2023/01/15 03:01:14;;;;;;;9.60;0.95;;;6.20;99.90;;;;;;5023079;28;20530;-79
2023/01/15 03:04:06;;;;;;;6.32;1.13;;;6.20;99.90;;;;;;5026530;28;20044;-79
2023/01/15 03:06:37;;;;;;;15.38;1.10;;;6.30;99.90;;;;;;5013307;28;20060;-79
2023/01/15 03:09:06;;;;;;;13.60;1.00;;;6.30;99.90;;;;;;5035842;28;20373;-78
2023/01/15 03:11:43;;;;;;;12.90;1.20;;;6.30;99.90;;;;;;5007158;28;20025;-79
2023/01/15 03:14:20;;;;;;;6.82;0.93;;;6.30;99.90;;;;;;5022036;28;20033;-79
2023/01/15 03:16:52;;;;;;;6.93;0.70;;;6.30;99.90;;;;;;5022752;28;20041;-79
2023/01/15 03:19:43;;;;;;;11.63;1.25;;;6.30;99.90;;;;;;5020708;28;20033;-79
2023/01/15 03:22:17;;;;;;;13.30;1.27;;;6.30;99.90;;;;;;5032953;28;20045;-79
2023/01/15 03:24:53;;;;;;;9.65;1.15;;;6.20;99.90;;;;;;5037956;28;20048;-79
2023/01/15 03:27:21;;;;;;;5.20;0.95;;;6.20;99.90;;;;;;5023410;28;20036;-80
2023/01/15 03:30:15;;;;;;;9.93;0.90;;;6.20;99.90;;;;;;5021044;28;20036;-81
2023/01/15 03:32:41;;;;;;;10.00;1.23;;;6.20;99.90;;;;;;5036286;28;20044;-78
2023/01/15 03:35:46;;;;;;;11.02;1.42;;;6.20;99.90;;;;;;5045346;28;20040;-79
2023/01/15 03:38:23;;;;;;;10.73;1.20;;;6.20;99.90;;;;;;5024865;28;20030;-78
2023/01/15 03:40:58;;;;;;;5.82;0.75;;;6.20;99.90;;;;;;5027348;28;20050;-79
2023/01/15 03:43:49;;;;;;;6.53;0.77;;;6.20;99.90;;;;;;5027468;28;20029;-78
2023/01/15 03:46:44;;;;;;;10.27;0.80;;;6.20;99.90;;;;;;5016960;28;20320;-79
2023/01/15 03:49:37;;;;;;;9.15;0.70;;;6.20;99.90;;;;;;5024673;28;20033;-79
2023/01/15 03:52:30;;;;;;;7.47;1.05;;;6.20;99.90;;;;;;5007352;28;20128;-79
2023/01/15 03:55:07;;;;;;;11.20;1.35;;;6.20;99.90;;;;;;5031401;28;20376;-79
2023/01/15 03:57:57;;;;;;;10.57;1.13;;;6.20;99.90;;;;;;5039175;28;20041;-79
2023/01/15 04:00:34;;;;;;;6.70;0.70;;;6.10;99.90;;;;;;5019034;28;20048;-79
2023/01/15 04:03:03;;;;;;;9.80;1.50;;;6.10;99.90;;;;;;5031494;28;20037;-79
2023/01/15 04:05:33;;;;;;;5.32;0.88;;;6.10;99.90;;;;;;5027248;28;20045;-79
2023/01/15 04:08:01;;;;;;;8.23;1.23;;;6.10;99.90;;;;;;5035469;28;20499;-79
2023/01/15 04:10:29;;;;;;;11.70;1.42;;;6.10;99.90;;;;;;5037340;28;20528;-78
2023/01/15 04:12:57;;;;;;;13.07;1.63;;;6.10;99.90;;;;;;5028973;28;20041;-78
2023/01/15 04:15:23;;;;;;;11.40;0.93;;;6.10;99.90;;;;;;5053793;28;20044;-80
2023/01/15 04:17:50;;;;;;;6.82;0.60;;;6.10;99.90;;;;;;5024930;28;20047;-79
2023/01/15 04:20:21;;;;;;;8.50;0.90;;;6.10;99.90;;;;;;5025303;28;20061;-80
2023/01/15 04:22:48;;;;;;;11.32;1.00;;;6.10;99.90;;;;;;5031804;28;20315;-80
2023/01/15 04:25:14;;;;;;;13.25;1.20;;;6.10;99.90;;;;;;5035563;28;20040;-80
2023/01/15 04:27:54;;;;;;;9.00;1.08;;;6.10;99.90;;;;;;5034363;28;20048;-80
2023/01/15 04:30:20;;;;;;;8.00;1.05;;;6.00;99.90;;;;;;5017251;28;20048;-80
2023/01/15 04:32:51;;;;;;;13.45;1.90;;;6.00;99.90;;;;;;5029183;28;20059;-80
2023/01/15 04:35:18;;;;;;;10.45;0.77;;;6.00;99.90;;;;;;5018947;28;20396;-79
2023/01/15 04:37:45;;;;;;;10.88;1.42;;;6.00;99.90;;;;;;5051479;28;20037;-80
2023/01/15 04:44:05;;;;;;;8.32;1.08;;;6.00;99.90;;;;;;5035603;28;20033;-80
2023/01/15 04:45:44;;;;;;;8.23;0.70;;;6.00;99.90;;;;;;5035485;28;20448;-80
2023/01/15 04:48:14;;;;;;;17.85;1.05;;;6.00;99.90;;;;;;5049265;28;20041;-80
2023/01/15 04:50:40;;;;;;;15.05;1.83;;;6.00;99.90;;;;;;5047609;28;20045;-80
2023/01/15 04:53:06;;;;;;;9.95;1.30;;;6.00;99.90;;;;;;5015321;28;20029;-80
2023/01/15 04:55:32;;;;;;;12.48;1.30;;;6.00;99.90;;;;;;5050400;28;20041;-79
2023/01/15 04:57:59;;;;;;;7.40;1.17;;;5.90;99.90;;;;;;5051169;28;20033;-80
2023/01/15 05:00:25;;;;;;;7.07;1.02;;;5.90;99.90;;;;;;5048888;28;20468;-79
2023/01/15 05:02:51;;;;;;;6.03;0.75;;;5.80;99.90;;;;;;5028021;28;20400;-80
2023/01/15 05:05:17;;;;;;;5.38;1.08;;;5.90;99.90;;;;;;5016227;28;20402;-79
2023/01/15 05:07:44;;;;;;;13.43;1.00;;;5.90;99.90;;;;;;5031569;28;20527;-79
2023/01/15 05:10:10;;;;;;;11.25;1.15;;;5.90;99.90;;;;;;5030661;28;20041;-79
2023/01/15 05:12:36;;;;;;;13.27;0.95;;;5.90;99.90;;;;;;5044876;28;20037;-80
2023/01/15 05:15:03;;;;;;;10.60;1.35;;;5.90;99.90;;;;;;5016443;28;20044;-80
2023/01/15 05:17:31;;;;;;;11.50;1.23;;;6.00;99.90;;;;;;5034529;28;20047;-79
2023/01/15 05:19:58;;;;;;;12.70;1.40;;;6.00;99.90;;;;;;5031191;28;20040;-80
2023/01/15 05:22:24;;;;;;;9.75;0.88;;;6.00;99.90;;;;;;5009601;28;20517;-80
2023/01/15 05:24:50;;;;;;;11.52;1.00;;;6.00;99.90;;;;;;5029387;28;20040;-80
2023/01/15 05:27:17;;;;;;;10.07;1.05;;;6.00;99.90;;;;;;5047977;28;20416;-79
2023/01/15 05:29:43;;;;;;;8.98;1.30;;;6.00;99.90;;;;;;5029158;28;20048;-80
2023/01/15 05:32:09;;;;;;;13.75;2.10;;;6.10;99.90;;;;;;5023660;28;20037;-80
2023/01/15 05:34:36;;;;;;;8.27;1.00;;;6.00;99.90;;;;;;5041754;28;20040;-80
2023/01/15 05:37:02;;;;;;;9.35;1.15;;;6.00;99.90;;;;;;5026562;28;20036;-80
2023/01/15 05:39:28;;;;;;;15.63;1.20;;;5.90;99.90;;;;;;5044695;28;20403;-80
2023/01/15 05:41:54;;;;;;;15.05;2.90;;;5.90;99.90;;;;;;5038284;28;20041;-79
2023/01/15 05:44:25;;;;;;;10.98;1.58;;;5.90;99.90;;;;;;5028469;28;20048;-80
2023/01/15 05:46:54;;;;;;;10.45;1.30;;;5.90;99.90;;;;;;5044427;28;20179;-79
2023/01/15 05:49:23;;;;;;;9.55;0.80;;;5.90;99.90;;;;;;5014361;28;20048;-79
2023/01/15 05:51:50;;;;;;;9.73;1.30;;;5.90;99.90;;;;;;5026999;28;20047;-79
2023/01/15 05:54:20;;;;;;;9.05;1.27;;;5.90;99.90;;;;;;5014877;28;20044;-80
2023/01/15 05:56:47;;;;;;;6.25;0.80;;;5.90;99.90;;;;;;5030139;28;20052;-79
2023/01/15 05:59:16;;;;;;;8.70;0.80;;;5.90;99.90;;;;;;5012304;28;20033;-79
2023/01/15 06:01:42;;;;;;;13.93;1.27;;;5.90;99.90;;;;;;5026011;28;20052;-80
2023/01/15 06:04:10;;;;;;;7.97;0.88;;;5.80;99.90;;;;;;5047186;28;20044;-80
2023/01/15 06:06:37;;;;;;;13.77;1.70;;;5.80;99.90;;;;;;5028497;28;20033;-80
2023/01/15 06:09:04;;;;;;;11.15;1.13;;;5.70;99.90;;;;;;5035289;28;20044;-80
2023/01/15 06:11:30;;;;;;;8.98;0.82;;;5.70;99.90;;;;;;5013005;28;20063;-80
2023/01/15 06:13:57;;;;;;;10.43;0.70;;;5.80;99.90;;;;;;5027704;28;20044;-80
2023/01/15 06:16:24;;;;;;;12.68;1.20;;;5.80;99.90;;;;;;5012887;28;20452;-80
2023/01/15 06:18:51;;;;;;;16.27;1.48;;;5.80;99.90;;;;;;5012998;28;20439;-80
2023/01/15 06:21:17;;;;;;;13.52;1.00;;;5.80;99.90;;;;;;5011564;28;20447;-80
2023/01/15 06:23:44;;;;;;;13.77;1.13;;;5.80;99.90;;;;;;5024278;28;20466;-80
2023/01/15 06:26:16;;;;;;;10.23;1.30;;;5.80;99.90;;;;;;5028590;28;20048;-80
2023/01/15 06:28:44;;;;;;;7.30;0.90;;;5.70;99.90;;;;;;5043528;28;20033;-80
2023/01/15 06:31:13;;;;;;;11.40;1.15;;;5.70;99.90;;;;;;5028577;28;20051;-80
2023/01/15 06:33:39;;;;;;;8.27;0.85;;;5.60;99.90;;;;;;5009919;28;20272;-79
2023/01/15 06:36:15;;;;;;;10.75;1.23;;;5.60;99.90;;;;;;5028843;28;20403;-80
2023/01/15 06:38:42;;;;;;;9.73;1.20;;;5.60;99.90;;;;;;5012233;28;20041;-79
2023/01/15 06:49:33;;;;;;;9.55;0.90;;;5.40;99.90;;;;;;5026967;28;20653;-80
2023/01/15 06:52:00;;;;;;;10.57;1.08;;;5.50;99.90;;;;;;5024914;28;20524;-80
2023/01/15 06:54:27;;;;;;;7.07;0.52;;;5.50;99.90;;;;;;5043946;28;20048;-80
2023/01/15 06:56:53;;;;;;;11.82;1.15;;;5.60;99.90;;;;;;5042401;28;20048;-80
2023/01/15 06:59:20;;;;;;;13.52;1.48;;;5.60;99.90;;;;;;5043801;28;20519;-80
2023/01/15 07:01:46;;;;;;;6.55;0.85;;;5.70;99.90;;;;;;5037648;28;20047;-80
2023/01/15 07:04:13;;;;;;;8.75;0.93;;;5.80;99.90;;;;;;5026354;28;20032;-80
2023/01/15 07:06:39;;;;;;;8.38;1.38;;;5.80;99.90;;;;;;5017850;28;20067;-81
2023/01/15 07:09:06;;;;;;;7.57;0.93;;;5.90;99.90;;;;;;5032005;28;20037;-81
2023/01/15 07:11:32;;;;;;;9.30;0.85;;;5.90;99.90;;;;;;5039104;28;20032;-80
2023/01/15 07:14:04;;;;;;;11.65;1.33;;;5.90;99.90;;;;;;5022712;28;20034;-80
2023/01/15 07:16:35;;;;;;;11.45;1.15;;;5.90;99.90;;;;;;5027926;28;20053;-80
2023/01/15 07:19:03;;;;;;;13.90;1.00;;;5.80;99.90;;;;;;5021258;28;20032;-80
2023/01/15 07:21:29;;;;;;;8.68;1.63;;;5.80;99.90;;;;;;5040485;28;20055;-80
2023/01/15 07:24:00;;;;;;;12.98;1.10;;;5.70;99.90;;;;;;5008118;28;20400;-80
2023/01/15 07:26:27;;;;;;;6.15;0.50;;;5.70;99.90;;;;;;5045418;28;20536;-80
2023/01/15 07:28:53;;;;;;;6.93;0.77;;;5.60;99.90;;;;;;5027888;28;20029;-80
2023/01/15 07:31:20;;;;;;;12.82;1.77;;;5.50;99.90;;;;;;5031649;28;20048;-80
2023/01/15 07:33:46;;;;;;;4.18;0.70;;;5.50;99.90;;;;;;5029402;28;20033;-80
2023/01/15 07:36:12;;;;;;;6.22;0.95;;;5.40;99.90;;;;;;5037056;28;20045;-82
2023/01/15 07:38:38;;;;;;;8.95;0.95;;;5.40;99.90;;;;;;5022454;28;20029;-80
2023/01/15 07:52:04;;;;;;;9.02;0.70;;;5.10;99.90;;;;;;5025055;28;20392;-80
2023/01/15 07:54:31;;;;;;;7.07;0.80;;;5.20;99.90;;;;;;5034148;28;20053;-79
2023/01/15 07:56:57;;;;;;;8.68;0.90;;;5.10;99.90;;;;;;5050970;28;20037;-79
2023/01/15 07:59:24;;;;;;;9.52;1.10;;;5.10;99.90;;;;;;5036586;28;20048;-81
2023/01/15 08:01:50;;;;;;;15.05;0.95;;;5.10;99.90;;;;;;5026801;28;20730;-80
2023/01/15 08:04:17;;;;;;;8.45;1.25;;;5.10;99.90;;;;;;5016867;28;20029;-79
2023/01/15 08:06:43;;;;;;;11.63;1.00;;;5.10;99.90;;;;;;5035300;28;20051;-79
2023/01/15 08:09:09;;;;;;;8.20;0.82;;;5.20;99.90;;;;;;5036198;28;20029;-79
2023/01/15 08:17:05;;;;;;;6.38;0.68;;;5.20;99.90;;;;;;5048852;28;20040;-79
2023/01/15 08:19:31;;;;;;;14.25;1.35;;;5.20;99.90;;;;;;5034270;28;20044;-80
2023/01/15 08:22:00;;;;;;;6.78;1.35;;;5.20;99.90;;;;;;5007952;28;20053;-78
2023/01/15 08:24:27;;;;;;;10.85;1.25;;;5.20;99.90;;;;;;5015926;28;20538;-79
2023/01/15 08:26:54;;;;;;;11.10;1.33;;;5.20;99.90;;;;;;5047571;28;20055;-80
2023/01/15 08:29:21;;;;;;;11.35;1.98;;;5.10;99.90;;;;;;5032640;28;20043;-80
2023/01/15 08:31:47;;;;;;;10.25;0.70;;;5.20;99.90;;;;;;5025958;28;20033;-80
2023/01/15 08:34:14;;;;;;;11.25;1.08;;;5.20;99.90;;;;;;5030362;28;20044;-81
2023/01/15 08:36:40;;;;;;;9.98;1.27;;;5.20;99.90;;;;;;5047583;28;20064;-80
2023/01/15 08:39:06;;;;;;;10.43;1.92;;;5.30;99.90;;;;;;5032114;28;20033;-80
2023/01/15 08:41:33;;;;;;;10.25;1.17;;;5.30;99.90;;;;;;5027062;28;20033;-79
2023/01/15 08:44:00;;;;;;;10.82;1.63;;;5.30;99.90;;;;;;5041181;28;20116;-79
2023/01/15 08:46:26;;;;;;;13.00;1.98;;;5.40;99.90;;;;;;5030473;28;20499;-82
2023/01/15 08:48:53;;;;;;;12.13;1.73;;;5.40;99.90;;;;;;5031748;28;20037;-81
2023/01/15 08:51:19;;;;;;;10.55;1.05;;;5.50;99.90;;;;;;5028181;28;20041;-81
2023/01/15 08:53:46;;;;;;;14.60;1.23;;;5.60;99.90;;;;;;5040238;28;20041;-81
2023/01/15 08:56:14;;;;;;;6.88;0.77;;;5.70;99.90;;;;;;5029783;28;20049;-81
2023/01/15 08:58:41;;;;;;;7.32;0.90;;;5.70;99.90;;;;;;5018520;28;20037;-81
2023/01/15 09:01:09;;;;;;;8.90;1.00;;;5.80;99.90;;;;;;5011013;28;20041;-81
2023/01/15 09:03:36;;;;;;;13.80;1.40;;;5.80;99.90;;;;;;5023893;28;20041;-81
2023/01/15 09:06:02;;;;;;;6.68;0.85;;;5.80;99.90;;;;;;5033440;28;20409;-81
2023/01/15 09:08:29;;;;;;;7.68;0.85;;;5.80;99.90;;;;;;5029967;28;20483;-81
2023/01/15 09:10:59;;;;;;;8.30;1.20;;;5.80;99.90;;;;;;5043589;28;20068;-81
2023/01/15 09:13:28;;;;;;;10.25;0.95;;;5.80;99.90;;;;;;5024070;28;20041;-81
2023/01/15 09:15:59;;;;;;;10.52;1.10;;;5.90;99.90;;;;;;5027388;28;20036;-81
2023/01/15 09:18:26;;;;;;;16.17;2.53;;;5.90;99.90;;;;;;5024441;28;20041;-83
2023/01/15 09:20:52;;;;;;;15.00;1.73;;;5.90;99.90;;;;;;5008549;28;20439;-82
2023/01/15 09:23:19;;;;;;;11.48;1.33;;;5.90;99.90;;;;;;5037056;28;20052;-81
2023/01/15 09:25:59;;;;;;;13.02;1.45;;;5.90;99.90;;;;;;5021048;28;20543;-78
2023/01/15 09:28:29;;;;;;;11.98;1.05;;;5.90;99.90;;;;;;5024308;28;20033;-79
2023/01/15 09:30:56;;;;;;;13.02;1.40;;;6.00;99.90;;;;;;5022757;28;20388;-78
2023/01/15 09:33:22;;;;;;;7.55;0.60;;;6.00;99.90;;;;;;5035837;28;20029;-83
2023/01/15 09:35:49;;;;;;;9.55;0.70;;;6.00;99.90;;;;;;5032062;28;20047;-80
2023/01/15 09:38:18;;;;;;;14.50;1.42;;;6.00;99.90;;;;;;5033064;28;20045;-81
2023/01/15 09:41:01;;;;;;;7.45;1.05;;;6.00;99.90;;;;;;5027605;28;20039;-80
2023/01/15 09:43:51;;;;;;;10.43;0.95;;;6.10;99.90;;;;;;5039761;28;20447;-81
2023/01/15 09:46:35;;;;;;;7.95;0.93;;;6.30;99.90;;;;;;5041606;28;20040;-79
2023/01/15 09:49:26;;;;;;;10.32;1.13;;;6.40;99.90;;;;;;5027403;28;20052;-79
2023/01/15 09:52:10;;;;;;;8.35;1.55;;;6.50;99.90;;;;;;5019391;28;20045;-78
2023/01/15 09:54:58;;;;;;;9.10;1.02;;;6.50;99.90;;;;;;5026591;28;20040;-79
2023/01/15 09:57:26;;;;;;;12.75;0.85;;;6.50;99.90;;;;;;5048060;28;20044;-78
2023/01/15 09:59:59;;;;;;;10.68;1.27;;;6.50;99.90;;;;;;5029161;28;20036;-79
2023/01/15 10:02:39;;;;;;;8.18;1.00;;;6.60;99.90;;;;;;5017596;28;20403;-79
2023/01/15 10:05:25;;;;;;;7.95;0.80;;;6.80;99.90;;;;;;5043791;28;20036;-79
2023/01/15 10:08:04;;;;;;;10.25;1.00;;;7.00;99.90;;;;;;5026319;28;20045;-79
2023/01/15 10:10:40;;;;;;;9.77;1.17;;;7.30;99.90;;;;;;5010508;28;20040;-79
2023/01/15 10:13:40;;;;;;;5.95;0.90;;;7.40;99.90;;;;;;4999401;28;20396;-79
2023/01/15 10:16:08;;;;;;;7.78;1.05;;;7.60;99.90;;;;;;5029053;28;20056;-79
2023/01/15 10:18:35;;;;;;;10.88;1.73;;;7.70;99.90;;;;;;5023159;28;20032;-79
2023/01/15 10:21:39;;;;;;;12.07;1.25;;;7.80;99.90;;;;;;5021629;28;20590;-79
2023/01/15 10:24:14;;;;;;;8.05;1.05;;;8.10;99.90;;;;;;5041848;28;20036;-80
2023/01/15 10:26:57;;;;;;;10.02;0.73;;;8.30;99.90;;;;;;5044515;28;20611;-79
2023/01/15 10:29:39;;;;;;;10.88;1.48;;;8.50;99.90;;;;;;5027920;28;20037;-80
2023/01/15 10:32:17;;;;;;;4.88;1.13;;;8.70;99.90;;;;;;5000444;28;20061;-79
2023/01/15 10:35:07;;;;;;;9.85;1.05;;;8.80;99.90;;;;;;5046452;28;20032;-79
2023/01/15 10:37:40;;;;;;;9.88;1.13;;;8.90;99.90;;;;;;5034741;28;20029;-79
2023/01/15 10:40:41;;;;;;;7.90;1.23;;;8.80;99.90;;;;;;5029231;28;20029;-79
2023/01/15 10:43:19;;;;;;;8.98;0.80;;;8.90;99.90;;;;;;5014656;28;20037;-79
2023/01/15 10:46:10;;;;;;;8.85;0.65;;;8.80;99.90;;;;;;5042932;28;20043;-78
2023/01/15 10:48:47;;;;;;;9.20;1.10;;;8.70;99.90;;;;;;5046260;28;20029;-79
2023/01/15 10:51:28;;;;;;;9.57;1.05;;;8.70;99.90;;;;;;5021966;28;20522;-80
2023/01/15 10:54:00;;;;;;;9.55;1.10;;;8.60;99.90;;;;;;5020493;28;20041;-79
2023/01/15 10:56:45;;;;;;;8.75;1.77;;;8.60;99.90;;;;;;5030614;28;20037;-81
2023/01/15 10:59:29;;;;;;;11.90;1.30;;;8.50;99.90;;;;;;5031152;28;20072;-80
2023/01/15 11:01:58;;;;;;;8.75;1.10;;;8.60;99.90;;;;;;5018273;28;20044;-78
2023/01/15 11:04:30;;;;;;;12.23;1.30;;;8.50;99.90;;;;;;5042727;28;20542;-78
2023/01/15 11:06:59;;;;;;;14.80;1.15;;;8.40;99.90;;;;;;5025828;28;20025;-78
2023/01/15 11:09:33;;;;;;;7.80;1.00;;;8.30;99.90;;;;;;5040967;28;20083;-79
2023/01/15 11:20:33;;;;;;;7.50;0.85;;;8.20;99.90;;;;;;5027856;28;20029;-77
2023/01/15 11:23:11;;;;;;;7.68;0.90;;;8.20;99.90;;;;;;5018288;28;20061;-77
2023/01/15 11:25:46;;;;;;;13.48;1.00;;;8.20;99.90;;;;;;5012599;28;20033;-77
2023/01/15 11:28:14;;;;;;;5.65;0.85;;;8.30;99.90;;;;;;5015763;28;20029;-77
2023/01/15 11:30:43;;;;;;;8.98;1.05;;;8.30;99.90;;;;;;5043699;28;20037;-78
2023/01/15 11:33:26;;;;;;;8.38;0.93;;;8.20;99.90;;;;;;5015702;28;20037;-78
2023/01/15 11:35:57;;;;;;;;;;;8.20;99.90;;;;;;5044880;28;20551;-77
2023/01/15 11:38:25;;;;;;;10.85;1.65;;;8.30;99.90;;;;;;5043060;28;19921;-77
2023/01/15 11:41:01;;;;;;;16.42;1.00;;;8.30;99.90;;;;;;5043907;28;20056;-77
2023/01/15 11:52:09;;;;;;;10.63;1.00;;;8.50;99.90;;;;;;5033024;28;20041;-77
2023/01/15 11:54:40;;;;;;;6.30;0.95;;;8.40;99.90;;;;;;5043695;28;20124;-77
2023/01/15 11:57:07;;;;;;;7.53;0.95;;;8.30;99.90;;;;;;5043552;28;20037;-77
2023/01/15 11:59:34;;;;;;;9.43;0.90;;;8.20;99.90;;;;;;5010651;28;20040;-77
2023/01/15 12:02:20;;;;;;;11.30;3.17;;;8.10;99.90;;;;;;5008470;28;20438;-78
2023/01/15 12:04:54;;;;;;;11.73;1.73;;;8.00;99.90;;;;;;5035208;28;20044;-81
2023/01/15 12:07:23;;;;;;;10.02;1.52;;;7.80;99.90;;;;;;5027461;28;20036;-77
2023/01/15 12:10:13;;;;;;;11.95;1.80;;;7.60;99.90;;;;;;5033509;28;20044;-76
2023/01/15 12:13:00;;;;;;;5.90;1.15;;;7.50;99.90;;;;;;5000808;28;20037;-77
2023/01/15 12:16:02;;;;;;;6.30;1.17;;;7.40;99.90;;;;;;5021763;28;20037;-77
2023/01/15 12:18:39;;;;;;;7.07;1.60;;;7.30;99.90;;;;;;5001457;28;20075;-82
2023/01/15 12:21:29;;;;;;;5.70;1.08;;;7.30;99.90;;;;;;5033225;28;20759;-81
2023/01/15 12:24:31;;;;;;;8.02;1.25;;;7.20;99.90;;;;;;5005147;28;20067;-79
2023/01/15 12:27:35;;;;;;;4.45;1.05;;;7.30;99.90;;;;;;5043283;28;20033;-79
2023/01/15 12:30:17;;;;;;;9.73;1.10;;;7.40;99.90;;;;;;5023246;28;20404;-79
2023/01/15 12:32:55;;;;;;;8.43;1.40;;;7.50;99.90;;;;;;5033258;28;20064;-80
2023/01/15 12:35:29;;;;;;;8.73;1.00;;;7.60;99.90;;;;;;5044876;28;20512;-77
2023/01/15 12:38:35;;;;;;;6.95;0.80;;;7.70;99.90;;;;;;5045796;28;20041;-77
2023/01/15 12:41:20;;;;;;;9.93;0.90;;;7.70;99.90;;;;;;5007397;28;20052;-76
2023/01/15 12:46:40;;;;;;;4.75;1.02;;;7.60;99.90;;;;;;5044849;28;20480;-78
2023/01/15 12:49:31;;;;;;;6.65;0.77;;;7.50;99.90;;;;;;5046773;28;20041;-77
2023/01/15 12:52:12;;;;;;;5.50;0.60;;;7.40;99.90;;;;;;5020467;28;20056;-75
2023/01/15 12:55:08;;;;;;;3.50;0.55;;;7.30;99.90;;;;;;5049553;28;20032;-77
2023/01/15 12:57:39;;;;;;;4.07;0.68;;;7.20;99.90;;;;;;5028551;28;20384;-80
2023/01/15 13:00:43;;;;;;;5.65;0.82;;;7.20;99.90;;;;;;5046240;28;20033;-77
2023/01/15 13:03:33;;;;;;;7.57;0.50;;;7.10;99.90;;;;;;5002674;28;20460;-78
2023/01/15 13:06:04;;;;;;;8.15;0.90;;;6.90;99.90;;;;;;5012861;28;20037;-77
2023/01/15 13:08:49;;;;;;;8.65;0.93;;;6.90;99.90;;;;;;5048782;28;20047;-77
2023/01/15 13:11:15;;;;;;;6.75;0.80;;;6.90;99.90;;;;;;5043464;28;20033;-77
2023/01/15 13:13:56;;;;;;;5.35;1.15;;;6.80;99.90;;;;;;5039422;28;20052;-77
2023/01/15 13:17:06;;;;;;;8.80;1.25;;;6.90;99.90;;;;;;5029264;28;20790;-77
2023/01/15 13:19:54;;;;;;;6.32;0.63;;;7.00;99.90;;;;;;5045952;28;20400;-76
2023/01/15 13:22:28;;;;;;;5.47;0.60;;;7.00;99.90;;;;;;5019654;28;20057;-77
2023/01/15 13:25:00;;;;;;;4.75;0.88;;;7.00;99.90;;;;;;5031324;28;20037;-78
2023/01/15 13:27:45;;;;;;;8.25;1.15;;;7.10;99.90;;;;;;5045750;28;20044;-78
2023/01/15 13:30:56;;;;;;;15.00;1.88;;;7.10;99.90;;;;;;5029334;28;20056;-78
2023/01/15 13:33:25;;;;;;;6.95;1.50;;;7.10;99.90;;;;;;4987464;28;20048;-76
2023/01/15 13:36:02;;;;;;;6.00;0.85;;;7.10;99.90;;;;;;5031041;28;20041;-78
2023/01/15 13:38:31;;;;;;;3.63;0.80;;;7.00;99.90;;;;;;5029244;28;20040;-76
2023/01/15 13:40:57;;;;;;;10.00;1.67;;;7.00;99.90;;;;;;5034354;28;20041;-77
2023/01/15 13:43:38;;;;;;;16.00;1.40;;;7.00;99.90;;;;;;5004099;28;20041;-80
2023/01/15 13:46:08;;;;;;;7.20;1.05;;;7.00;99.90;;;;;;5027332;28;20047;-78
2023/01/15 13:48:42;;;;;;;4.63;1.00;;;7.00;99.90;;;;;;5027875;28;20033;-76
2023/01/15 13:51:28;;;;;;;16.88;2.28;;;7.00;99.90;;;;;;5040804;28;20507;-77
2023/01/15 13:53:56;;;;;;;9.70;1.60;;;7.00;99.90;;;;;;5039757;28;20562;-77
2023/01/15 13:56:31;;;;;;;8.43;1.40;;;7.00;99.90;;;;;;5026677;28;20037;-76
2023/01/15 13:59:00;;;;;;;7.30;1.25;;;6.90;99.90;;;;;;5028534;28;20037;-77
2023/01/15 14:01:30;;;;;;;10.00;1.35;;;6.90;99.90;;;;;;5038348;28;20686;-82
2023/01/15 14:04:14;;;;;;;11.13;1.42;;;6.90;99.90;;;;;;5040930;28;20041;-79
2023/01/15 14:06:46;;;;;;;9.00;0.77;;;6.90;99.90;;;;;;5043283;28;20052;-76
2023/01/15 14:09:28;;;;;;;6.28;0.98;;;6.80;99.90;;;;;;5044751;28;20043;-80
2023/01/15 14:12:37;;;;;;;5.75;1.10;;;6.80;99.90;;;;;;5027305;28;20040;-79
2023/01/15 14:15:41;;;;;;;9.13;0.90;;;6.80;99.90;;;;;;5009519;28;20044;-79
2023/01/15 14:18:35;;;;;;;5.45;1.05;;;6.70;99.90;;;;;;5026572;28;20033;-78